Terminal Aerodrome Forecast
Issued by NWS

Home | Current Version | Previous Version | Text Only | Print | Product List | Glossary On
Versions: 1 2 3 4 5 6 7 8 9 10 11 12 13 14 15 16 17 18 19 20 21 22 23 24 25 26
000
FTUS43 KAPX 251000 AAC
TAFAPN
TAF AMD
KAPN 251008Z 2510/2606 22008KT P6SM OVC020
     FM251200 25010G18KT P6SM SKC
     FM251500 28013G23KT P6SM SCT040
     FM260000 29010G17KT P6SM SCT050=

USA.gov is the U.S. government's official web portal to all federal, state and local government web resources and services.